createdAt,value
2023-02-12T00:00:19.360Z,0
2023-02-12T00:05:19.410Z,0
2023-02-12T00:10:19.355Z,0
2023-02-12T00:15:19.322Z,0
2023-02-12T00:20:19.433Z,0
2023-02-12T00:25:16.330Z,0
2023-02-12T00:30:16.438Z,0
2023-02-12T00:35:19.360Z,0
2023-02-12T00:40:19.423Z,0
2023-02-12T00:45:19.451Z,0
2023-02-12T00:50:19.433Z,0
2023-02-12T00:55:19.441Z,0
2023-02-12T01:00:19.568Z,0
2023-02-12T01:05:19.720Z,0
2023-02-12T01:10:19.485Z,1
2023-02-12T01:15:19.628Z,1
2023-02-12T01:20:16.433Z,0
2023-02-12T01:25:18.171Z,1
2023-02-12T01:30:19.558Z,1
2023-02-12T01:35:19.622Z,0
2023-02-12T01:40:19.539Z,0
2023-02-12T01:45:19.574Z,1
2023-02-12T01:50:19.628Z,1
2023-02-12T01:55:19.603Z,0
2023-02-12T02:00:19.619Z,0
2023-02-12T02:05:19.630Z,1
2023-02-12T02:10:19.682Z,1
2023-02-12T02:15:16.513Z,1
2023-02-12T02:20:19.638Z,0
2023-02-12T02:25:19.684Z,1
2023-02-12T02:30:19.598Z,0
2023-02-12T02:35:19.733Z,0
2023-02-12T02:40:19.704Z,1
2023-02-12T02:45:19.793Z,1
2023-02-12T02:50:19.666Z,1
2023-02-12T02:55:19.779Z,1
2023-02-12T03:00:19.743Z,1
2023-02-12T03:05:16.705Z,0
2023-02-12T03:10:16.692Z,0
2023-02-12T03:15:19.899Z,0
2023-02-12T03:20:19.914Z,0
2023-02-12T03:25:19.683Z,1
2023-02-12T03:30:19.783Z,0
2023-02-12T03:35:19.815Z,1
2023-02-12T03:40:20.045Z,1
2023-02-12T03:45:19.874Z,2
2023-02-12T03:50:19.866Z,2
2023-02-12T03:55:19.910Z,1
2023-02-12T04:00:16.686Z,1
2023-02-12T04:05:16.846Z,0
2023-02-12T04:10:19.984Z,0
2023-02-12T04:15:19.920Z,0
2023-02-12T04:20:19.891Z,0
2023-02-12T04:25:19.919Z,0
2023-02-12T04:30:20.035Z,1
2023-02-12T04:35:20.009Z,2
2023-02-12T04:40:20.135Z,1
2023-02-12T04:45:19.962Z,1
2023-02-12T04:50:19.976Z,0
2023-02-12T04:55:16.916Z,0
2023-02-12T05:00:19.290Z,0
2023-02-12T05:05:19.380Z,0
2023-02-12T05:10:16.266Z,1
2023-02-12T05:15:19.344Z,0
2023-02-12T05:20:19.389Z,1
2023-02-12T05:25:19.358Z,1
2023-02-12T05:30:19.343Z,1
2023-02-12T05:35:19.306Z,2
2023-02-12T05:40:19.479Z,2
2023-02-12T05:45:19.472Z,1
2023-02-12T05:50:19.468Z,2
2023-02-12T05:55:19.377Z,1
2023-02-12T06:00:16.307Z,1
2023-02-12T06:05:16.312Z,1
2023-02-12T06:10:19.429Z,2
2023-02-12T06:15:19.509Z,2
2023-02-12T06:20:19.426Z,3
2023-02-12T06:25:19.500Z,3
2023-02-12T06:30:16.406Z,4
2023-02-12T06:35:19.491Z,4
2023-02-12T06:40:19.537Z,3
2023-02-12T06:45:19.720Z,3
2023-02-12T06:50:19.578Z,2
2023-02-12T06:55:16.436Z,3
2023-02-12T07:00:16.429Z,2
2023-02-12T07:05:19.601Z,3
2023-02-12T07:10:19.633Z,2
2023-02-12T07:15:19.576Z,1
2023-02-12T07:20:19.694Z,1
2023-02-12T07:25:19.678Z,2
2023-02-12T07:30:19.715Z,1
2023-02-12T07:35:19.721Z,0
2023-02-12T07:40:19.681Z,0
2023-02-12T07:45:19.703Z,1
2023-02-12T07:50:16.614Z,2
2023-02-12T07:55:19.688Z,1
2023-02-12T08:00:19.683Z,1
2023-02-12T08:05:19.808Z,1
2023-02-12T08:10:16.753Z,1
2023-02-12T08:15:19.790Z,2
2023-02-12T08:20:19.797Z,2
2023-02-12T08:25:19.795Z,1
2023-02-12T08:30:19.833Z,1
2023-02-12T08:35:19.798Z,1
2023-02-12T08:40:16.636Z,1
2023-02-12T08:45:16.766Z,1
2023-02-12T08:50:19.859Z,1
2023-02-12T08:55:19.803Z,1
2023-02-12T09:00:19.831Z,1
2023-02-12T09:05:19.844Z,1
2023-02-12T09:10:19.763Z,2
2023-02-12T09:15:19.847Z,2
2023-02-12T09:20:19.925Z,2
2023-02-12T09:25:19.972Z,2
2023-02-12T09:30:20.095Z,1
2023-02-12T09:35:16.931Z,2
2023-02-12T09:40:16.834Z,1
2023-02-12T09:45:20.153Z,1
2023-02-12T09:50:19.925Z,1
2023-02-12T09:55:20.043Z,0
2023-02-12T10:00:20.038Z,0
2023-02-12T10:05:20.034Z,0
2023-02-12T10:10:20.011Z,0
2023-02-12T10:15:20.132Z,0
2023-02-12T10:20:20.051Z,1
2023-02-12T10:25:20.083Z,1
2023-02-12T10:30:16.973Z,1
2023-02-12T10:35:20.154Z,2
2023-02-12T10:40:20.206Z,1
2023-02-12T10:45:20.141Z,2
2023-02-12T10:50:20.204Z,2
2023-02-12T10:55:20.074Z,2
2023-02-12T11:00:20.120Z,1
2023-02-12T11:05:20.210Z,1
2023-02-12T11:10:20.209Z,1
2023-02-12T11:15:20.234Z,1
2023-02-12T11:20:17.143Z,1
2023-02-12T11:25:17.243Z,2
2023-02-12T11:30:20.304Z,1
2023-02-12T11:35:20.298Z,1
2023-02-12T11:40:20.303Z,1
2023-02-12T11:45:20.290Z,1
2023-02-12T11:50:20.293Z,0
2023-02-12T11:55:20.296Z,0
2023-02-12T12:00:20.235Z,1
2023-02-12T12:05:20.402Z,0
2023-02-12T12:10:20.410Z,0
2023-02-12T12:15:17.336Z,1
2023-02-12T12:20:17.289Z,1
2023-02-12T12:25:20.507Z,1
2023-02-12T12:30:20.425Z,0
2023-02-12T12:35:20.407Z,0
2023-02-12T12:40:20.462Z,0
2023-02-12T12:45:20.449Z,1
2023-02-12T12:50:20.410Z,1
2023-02-12T12:55:20.410Z,1
2023-02-12T13:00:21.613Z,1
2023-02-12T13:05:20.506Z,1
2023-02-12T13:10:17.523Z,2
2023-02-12T13:15:17.461Z,2
2023-02-12T13:20:20.501Z,2
2023-02-12T13:25:20.533Z,2
2023-02-12T13:30:20.572Z,1
2023-02-12T13:35:20.610Z,1
2023-02-12T13:40:20.599Z,2
2023-02-12T13:45:18.607Z,2
2023-02-12T13:50:15.498Z,3
2023-02-12T13:55:18.694Z,3
2023-02-12T14:00:18.741Z,4
2023-02-12T14:05:19.653Z,1
2023-02-12T14:10:19.583Z,2
2023-02-12T14:15:19.683Z,2
2023-02-12T14:20:16.692Z,2
2023-02-12T14:25:16.682Z,2
2023-02-12T14:30:19.648Z,2
2023-02-12T14:35:19.776Z,3
2023-02-12T14:40:19.811Z,2
2023-02-12T14:45:19.823Z,2
2023-02-12T14:50:19.720Z,6
2023-02-12T14:55:19.828Z,6
2023-02-12T15:00:19.698Z,3
2023-02-12T15:05:19.824Z,9
2023-02-12T15:10:19.695Z,9
2023-02-12T15:15:16.735Z,7
2023-02-12T15:20:16.795Z,6
2023-02-12T15:25:19.836Z,2
2023-02-12T15:30:26.080Z,2
2023-02-12T15:35:20.144Z,3
2023-02-12T15:40:19.831Z,3
2023-02-12T15:45:19.963Z,2
2023-02-12T15:50:19.963Z,4
2023-02-12T15:55:19.878Z,9
2023-02-12T16:00:20.039Z,9
2023-02-12T16:05:16.829Z,6
2023-02-12T16:10:16.761Z,3
2023-02-12T16:15:20.012Z,5
2023-02-12T16:20:20.099Z,1
2023-02-12T16:25:19.912Z,3
2023-02-12T16:30:20.019Z,2
2023-02-12T16:35:20.003Z,6
2023-02-12T16:40:20.064Z,8
2023-02-12T16:45:20.069Z,4
2023-02-12T16:50:19.927Z,4
2023-02-12T16:55:20.047Z,3
2023-02-12T17:00:16.907Z,3
2023-02-12T17:05:20.144Z,2
2023-02-12T17:10:20.009Z,2
2023-02-12T17:15:20.113Z,3
2023-02-12T17:20:20.051Z,1
2023-02-12T17:25:20.061Z,2
2023-02-12T17:30:20.154Z,3
2023-02-12T17:35:20.054Z,2
2023-02-12T17:40:20.089Z,2
2023-02-12T17:45:20.101Z,2
2023-02-12T17:50:17.051Z,2
2023-02-12T17:55:16.989Z,2
2023-02-12T18:00:20.139Z,3
2023-02-12T18:05:20.224Z,3
2023-02-12T18:10:20.181Z,1
2023-02-12T18:15:20.241Z,2
2023-02-12T18:20:20.153Z,2
2023-02-12T18:25:20.168Z,3
2023-02-12T18:30:20.233Z,2
2023-02-12T18:35:20.195Z,6
2023-02-12T18:40:20.332Z,7
2023-02-12T18:45:17.195Z,6
2023-02-12T18:50:17.232Z,4
2023-02-12T18:55:20.408Z,5
2023-02-12T19:00:20.286Z,5
2023-02-12T19:05:20.230Z,8
2023-02-12T19:10:20.245Z,5
2023-02-12T19:15:20.331Z,3
2023-02-12T19:20:20.232Z,2
2023-02-12T19:25:20.244Z,2
2023-02-12T19:30:20.296Z,3
2023-02-12T19:35:20.326Z,1
2023-02-12T19:40:17.173Z,2
2023-02-12T19:45:20.400Z,2
2023-02-12T19:50:20.376Z,0
2023-02-12T19:55:20.407Z,1
2023-02-12T20:00:20.409Z,2
2023-02-12T20:05:20.367Z,4
2023-02-12T20:10:20.326Z,1
2023-02-12T20:15:20.325Z,6
2023-02-12T20:20:20.407Z,5
2023-02-12T20:25:20.468Z,3
2023-02-12T20:30:17.333Z,0
2023-02-12T20:35:17.262Z,2
2023-02-12T20:40:20.402Z,1
2023-02-12T20:45:20.468Z,2
2023-02-12T20:50:20.580Z,2
2023-02-12T20:55:20.449Z,0
2023-02-12T21:00:20.546Z,1
2023-02-12T21:05:20.461Z,0
2023-02-12T21:10:20.431Z,0
2023-02-12T21:15:20.495Z,0
2023-02-12T21:20:20.599Z,0
2023-02-12T21:25:17.399Z,1
2023-02-12T21:30:17.599Z,0
2023-02-12T21:35:20.660Z,0
2023-02-12T21:40:20.510Z,0
2023-02-12T21:45:20.566Z,0
2023-02-12T21:50:20.613Z,0
2023-02-12T21:55:20.516Z,0
2023-02-12T22:00:20.446Z,0
2023-02-12T22:05:20.544Z,0
2023-02-12T22:10:20.595Z,0
2023-02-12T22:15:18.588Z,0
2023-02-12T22:20:18.627Z,0
2023-02-12T22:25:18.650Z,0
2023-02-12T22:30:18.598Z,0
2023-02-12T22:35:18.673Z,0
2023-02-12T22:40:18.576Z,0
2023-02-12T22:45:18.785Z,0
2023-02-12T22:50:18.732Z,0
2023-02-12T22:55:15.527Z,0
2023-02-12T23:00:15.606Z,0
2023-02-12T23:05:18.606Z,0
2023-02-12T23:10:18.622Z,0
2023-02-12T23:15:18.672Z,0
2023-02-12T23:20:18.740Z,0
2023-02-12T23:25:18.706Z,0
2023-02-12T23:30:18.690Z,0
2023-02-12T23:35:18.767Z,0
2023-02-12T23:40:18.788Z,0
2023-02-12T23:45:18.789Z,0
2023-02-12T23:50:15.677Z,0
2023-02-12T23:55:16.102Z,0
